sensor_id;sensor_type;location;lat;lon;timestamp;pressure;altitude;pressure_sealevel;temperature;humidity
78675;BME280;67990;59.826;30.108;2023-03-05T00:00:14;99330.44;;;1.00;73.50
78675;BME280;67990;59.826;30.108;2023-03-05T00:02:41;99319.19;;;0.89;74.02
78675;BME280;67990;59.826;30.108;2023-03-05T00:05:10;99321.41;;;0.82;74.53
78675;BME280;67990;59.826;30.108;2023-03-05T00:07:37;99322.53;;;0.78;74.37
78675;BME280;67990;59.826;30.108;2023-03-05T00:10:05;99318.19;;;0.91;74.06
78675;BME280;67990;59.826;30.108;2023-03-05T00:12:34;99324.91;;;0.94;73.87
78675;BME280;67990;59.826;30.108;2023-03-05T00:15:01;99307.44;;;0.85;74.16
78675;BME280;67990;59.826;30.108;2023-03-05T00:17:28;99322.69;;;1.00;74.07
78675;BME280;67990;59.826;30.108;2023-03-05T00:19:57;99317.84;;;0.96;73.88
78675;BME280;67990;59.826;30.108;2023-03-05T00:22:24;99319.34;;;1.11;74.21
78675;BME280;67990;59.826;30.108;2023-03-05T00:24:52;99321.53;;;1.04;74.20
78675;BME280;67990;59.826;30.108;2023-03-05T00:27:19;99312.63;;;1.08;74.18
78675;BME280;67990;59.826;30.108;2023-03-05T00:29:47;99308.28;;;1.09;73.70
78675;BME280;67990;59.826;30.108;2023-03-05T00:32:15;99306.91;;;1.16;73.27
78675;BME280;67990;59.826;30.108;2023-03-05T00:34:42;99325.19;;;1.25;73.64
78675;BME280;67990;59.826;30.108;2023-03-05T00:37:09;99312.66;;;1.19;73.79
78675;BME280;67990;59.826;30.108;2023-03-05T00:39:36;99325.59;;;1.19;73.68
78675;BME280;67990;59.826;30.108;2023-03-05T00:42:04;99324.56;;;1.22;73.34
78675;BME280;67990;59.826;30.108;2023-03-05T00:44:31;99313.81;;;1.15;73.56
78675;BME280;67990;59.826;30.108;2023-03-05T00:47:00;99300.41;;;1.10;73.06
78675;BME280;67990;59.826;30.108;2023-03-05T00:49:27;99300.75;;;1.06;73.05
78675;BME280;67990;59.826;30.108;2023-03-05T00:51:54;99316.78;;;1.22;73.33
78675;BME280;67990;59.826;30.108;2023-03-05T00:54:21;99307.13;;;1.13;72.96
78675;BME280;67990;59.826;30.108;2023-03-05T00:56:48;99326.13;;;1.24;73.23
78675;BME280;67990;59.826;30.108;2023-03-05T00:59:15;99305.38;;;0.90;73.53
78675;BME280;67990;59.826;30.108;2023-03-05T01:01:43;99320.28;;;1.10;73.38
78675;BME280;67990;59.826;30.108;2023-03-05T01:04:11;99313.34;;;1.10;73.22
78675;BME280;67990;59.826;30.108;2023-03-05T01:06:39;99304.16;;;1.06;72.96
78675;BME280;67990;59.826;30.108;2023-03-05T01:09:09;99315.25;;;1.19;72.67
78675;BME280;67990;59.826;30.108;2023-03-05T01:11:36;99330.34;;;1.02;73.49
78675;BME280;67990;59.826;30.108;2023-03-05T01:14:03;99323.69;;;1.10;73.42
78675;BME280;67990;59.826;30.108;2023-03-05T01:16:31;99335.63;;;1.00;73.13
78675;BME280;67990;59.826;30.108;2023-03-05T01:18:58;99330.00;;;1.06;73.40
78675;BME280;67990;59.826;30.108;2023-03-05T01:21:27;99281.81;;;0.82;72.82
78675;BME280;67990;59.826;30.108;2023-03-05T01:23:54;99316.59;;;1.01;72.51
78675;BME280;67990;59.826;30.108;2023-03-05T01:26:21;99318.44;;;0.99;73.01
78675;BME280;67990;59.826;30.108;2023-03-05T01:28:48;99328.16;;;1.08;72.87
78675;BME280;67990;59.826;30.108;2023-03-05T01:31:15;99338.91;;;1.02;72.74
78675;BME280;67990;59.826;30.108;2023-03-05T01:33:42;99322.91;;;0.97;72.90
78675;BME280;67990;59.826;30.108;2023-03-05T01:36:12;99332.94;;;1.02;72.39
78675;BME280;67990;59.826;30.108;2023-03-05T01:38:43;99331.72;;;0.95;72.79
78675;BME280;67990;59.826;30.108;2023-03-05T01:41:12;99326.44;;;0.96;72.34
78675;BME280;67990;59.826;30.108;2023-03-05T01:43:41;99330.88;;;0.94;72.67
78675;BME280;67990;59.826;30.108;2023-03-05T01:46:30;99329.03;;;0.96;72.98
78675;BME280;67990;59.826;30.108;2023-03-05T01:49:06;99326.25;;;0.87;73.35
78675;BME280;67990;59.826;30.108;2023-03-05T01:51:38;99326.63;;;0.93;72.78
78675;BME280;67990;59.826;30.108;2023-03-05T01:54:09;99333.47;;;0.94;73.19
78675;BME280;67990;59.826;30.108;2023-03-05T01:56:38;99306.81;;;0.81;73.26
78675;BME280;67990;59.826;30.108;2023-03-05T01:59:06;99310.25;;;0.82;72.95
78675;BME280;67990;59.826;30.108;2023-03-05T02:01:37;99309.19;;;0.84;73.14
78675;BME280;67990;59.826;30.108;2023-03-05T02:04:07;99306.50;;;0.86;73.45
78675;BME280;67990;59.826;30.108;2023-03-05T02:06:36;99313.44;;;0.85;73.29
78675;BME280;67990;59.826;30.108;2023-03-05T02:09:04;99303.09;;;0.85;73.02
78675;BME280;67990;59.826;30.108;2023-03-05T02:11:33;99322.59;;;1.02;73.30
78675;BME280;67990;59.826;30.108;2023-03-05T02:14:02;99321.66;;;1.03;73.10
78675;BME280;67990;59.826;30.108;2023-03-05T02:16:29;99303.59;;;0.90;73.28
78675;BME280;67990;59.826;30.108;2023-03-05T02:19:03;99320.81;;;1.02;73.16
78675;BME280;67990;59.826;30.108;2023-03-05T02:21:38;99321.84;;;1.00;73.16
78675;BME280;67990;59.826;30.108;2023-03-05T02:24:06;99312.19;;;0.91;73.38
78675;BME280;67990;59.826;30.108;2023-03-05T02:26:33;99328.66;;;1.01;73.26
78675;BME280;67990;59.826;30.108;2023-03-05T02:29:02;99307.09;;;0.89;73.57
78675;BME280;67990;59.826;30.108;2023-03-05T02:31:31;99331.38;;;0.99;73.40
78675;BME280;67990;59.826;30.108;2023-03-05T02:33:59;99332.78;;;1.03;73.26
78675;BME280;67990;59.826;30.108;2023-03-05T02:36:27;99326.81;;;1.03;73.26
78675;BME280;67990;59.826;30.108;2023-03-05T02:38:56;99327.41;;;1.06;73.72
78675;BME280;67990;59.826;30.108;2023-03-05T02:41:24;99293.88;;;0.94;73.56
78675;BME280;67990;59.826;30.108;2023-03-05T02:43:54;99328.16;;;1.08;73.48
78675;BME280;67990;59.826;30.108;2023-03-05T02:46:21;99335.66;;;1.11;74.00
78675;BME280;67990;59.826;30.108;2023-03-05T02:48:49;99335.66;;;1.11;74.07
78675;BME280;67990;59.826;30.108;2023-03-05T02:51:16;99312.94;;;1.04;74.02
78675;BME280;67990;59.826;30.108;2023-03-05T02:53:45;99332.56;;;1.19;74.08
78675;BME280;67990;59.826;30.108;2023-03-05T02:56:14;99333.88;;;1.24;73.93
78675;BME280;67990;59.826;30.108;2023-03-05T02:58:41;99321.97;;;1.22;74.14
78675;BME280;67990;59.826;30.108;2023-03-05T03:01:08;99305.25;;;1.15;74.01
78675;BME280;67990;59.826;30.108;2023-03-05T03:03:35;99330.84;;;1.30;74.17
78675;BME280;67990;59.826;30.108;2023-03-05T03:06:03;99310.25;;;1.29;74.18
78675;BME280;67990;59.826;30.108;2023-03-05T03:08:30;99315.78;;;1.24;73.95
78675;BME280;67990;59.826;30.108;2023-03-05T03:11:03;99326.53;;;1.42;74.09
78675;BME280;67990;59.826;30.108;2023-03-05T03:13:32;99332.66;;;1.41;73.51
78675;BME280;67990;59.826;30.108;2023-03-05T03:16:03;99300.75;;;1.29;73.39
78675;BME280;67990;59.826;30.108;2023-03-05T03:18:31;99325.63;;;1.43;73.38
78675;BME280;67990;59.826;30.108;2023-03-05T03:20:59;99308.16;;;1.34;73.58
78675;BME280;67990;59.826;30.108;2023-03-05T03:23:26;99318.56;;;1.45;73.43
78675;BME280;67990;59.826;30.108;2023-03-05T03:25:53;99332.81;;;1.50;73.64
78675;BME280;67990;59.826;30.108;2023-03-05T03:28:20;99315.97;;;1.45;73.29
78675;BME280;67990;59.826;30.108;2023-03-05T03:30:49;99302.88;;;1.35;73.63
78675;BME280;67990;59.826;30.108;2023-03-05T03:33:16;99329.50;;;1.48;73.72
78675;BME280;67990;59.826;30.108;2023-03-05T03:35:44;99297.69;;;1.35;73.73
78675;BME280;67990;59.826;30.108;2023-03-05T03:38:12;99309.25;;;1.42;73.34
78675;BME280;67990;59.826;30.108;2023-03-05T03:40:40;99323.25;;;1.51;73.22
78675;BME280;67990;59.826;30.108;2023-03-05T03:43:07;99332.59;;;1.53;73.81
78675;BME280;67990;59.826;30.108;2023-03-05T03:45:39;99324.59;;;1.56;73.26
78675;BME280;67990;59.826;30.108;2023-03-05T03:48:08;99319.41;;;1.56;73.04
78675;BME280;67990;59.826;30.108;2023-03-05T03:50:37;99322.00;;;1.56;73.18
78675;BME280;67990;59.826;30.108;2023-03-05T03:53:04;99323.25;;;1.51;73.39
78675;BME280;67990;59.826;30.108;2023-03-05T03:55:32;99329.00;;;1.43;73.04
78675;BME280;67990;59.826;30.108;2023-03-05T03:57:59;99325.00;;;1.39;73.03
78675;BME280;67990;59.826;30.108;2023-03-05T04:00:26;99323.72;;;1.45;73.04
78675;BME280;67990;59.826;30.108;2023-03-05T04:02:53;99321.69;;;1.37;73.02
78675;BME280;67990;59.826;30.108;2023-03-05T04:05:22;99299.31;;;1.25;73.08
78675;BME280;67990;59.826;30.108;2023-03-05T04:07:49;99324.03;;;1.29;72.72
78675;BME280;67990;59.826;30.108;2023-03-05T04:10:17;99328.94;;;1.32;73.00
78675;BME280;67990;59.826;30.108;2023-03-05T04:12:44;99327.56;;;1.28;73.09
78675;BME280;67990;59.826;30.108;2023-03-05T04:15:11;99327.56;;;1.28;72.52
78675;BME280;67990;59.826;30.108;2023-03-05T04:17:38;99332.84;;;1.27;72.46
78675;BME280;67990;59.826;30.108;2023-03-05T04:20:06;99330.56;;;1.22;72.74
78675;BME280;67990;59.826;30.108;2023-03-05T04:22:36;99333.34;;;1.19;72.30
78675;BME280;67990;59.826;30.108;2023-03-05T04:25:04;99329.44;;;1.14;72.75
78675;BME280;67990;59.826;30.108;2023-03-05T04:27:33;99334.03;;;1.10;72.78
78675;BME280;67990;59.826;30.108;2023-03-05T04:30:01;99326.72;;;1.04;72.38
78675;BME280;67990;59.826;30.108;2023-03-05T04:32:28;99336.53;;;0.99;72.55
78675;BME280;67990;59.826;30.108;2023-03-05T04:34:55;99332.53;;;0.95;73.25
78675;BME280;67990;59.826;30.108;2023-03-05T04:37:23;99312.00;;;0.81;73.14
78675;BME280;67990;59.826;30.108;2023-03-05T04:39:52;99327.38;;;0.95;73.01
78675;BME280;67990;59.826;30.108;2023-03-05T04:42:19;99333.25;;;0.97;72.69
78675;BME280;67990;59.826;30.108;2023-03-05T04:44:47;99311.78;;;0.84;72.69
78675;BME280;67990;59.826;30.108;2023-03-05T04:47:14;99318.50;;;0.87;72.86
78675;BME280;67990;59.826;30.108;2023-03-05T04:49:42;99309.50;;;0.80;72.73
78675;BME280;67990;59.826;30.108;2023-03-05T04:52:10;99333.47;;;0.94;72.98
78675;BME280;67990;59.826;30.108;2023-03-05T04:54:38;99330.97;;;0.93;73.22
78675;BME280;67990;59.826;30.108;2023-03-05T04:57:06;99335.63;;;1.00;72.58
78675;BME280;67990;59.826;30.108;2023-03-05T04:59:33;99339.00;;;1.01;72.73
78675;BME280;67990;59.826;30.108;2023-03-05T05:02:00;99335.53;;;1.02;72.94
78675;BME280;67990;59.826;30.108;2023-03-05T05:04:28;99328.38;;;0.93;72.48
78675;BME280;67990;59.826;30.108;2023-03-05T05:06:55;99340.56;;;1.03;72.55
78675;BME280;67990;59.826;30.108;2023-03-05T05:09:24;99331.81;;;0.93;72.86
78675;BME280;67990;59.826;30.108;2023-03-05T05:11:51;99345.47;;;0.95;72.97
78675;BME280;67990;59.826;30.108;2023-03-05T05:14:21;99351.13;;;1.00;73.11
78675;BME280;67990;59.826;30.108;2023-03-05T05:16:48;99357.84;;;1.03;73.06
78675;BME280;67990;59.826;30.108;2023-03-05T05:19:16;99355.16;;;1.04;72.84
78675;BME280;67990;59.826;30.108;2023-03-05T05:21:43;99335.53;;;1.02;72.62
78675;BME280;67990;59.826;30.108;2023-03-05T05:24:11;99354.69;;;1.23;72.57
78675;BME280;67990;59.826;30.108;2023-03-05T05:26:38;99350.09;;;1.26;72.08
78675;BME280;67990;59.826;30.108;2023-03-05T05:29:06;99350.00;;;1.28;71.79
78675;BME280;67990;59.826;30.108;2023-03-05T05:31:34;99351.75;;;1.27;71.93
78675;BME280;67990;59.826;30.108;2023-03-05T05:34:03;99341.34;;;1.16;72.28
78675;BME280;67990;59.826;30.108;2023-03-05T05:36:30;99362.44;;;1.23;72.34
78675;BME280;67990;59.826;30.108;2023-03-05T05:38:58;99357.38;;;1.21;72.39
78675;BME280;67990;59.826;30.108;2023-03-05T05:41:25;99364.41;;;1.19;72.66
78675;BME280;67990;59.826;30.108;2023-03-05T05:43:52;99355.72;;;1.20;72.56
78675;BME280;67990;59.826;30.108;2023-03-05T05:46:20;99346.41;;;1.18;72.48
78675;BME280;67990;59.826;30.108;2023-03-05T05:48:50;99356.78;;;1.41;72.13
78675;BME280;67990;59.826;30.108;2023-03-05T05:51:21;99358.31;;;1.44;72.31
78675;BME280;67990;59.826;30.108;2023-03-05T05:53:49;99361.16;;;1.52;72.10
78675;BME280;67990;59.826;30.108;2023-03-05T05:56:17;99355.53;;;1.58;71.72
78675;BME280;67990;59.826;30.108;2023-03-05T05:58:46;99361.69;;;1.68;71.74
78675;BME280;67990;59.826;30.108;2023-03-05T06:01:15;99363.72;;;1.75;71.46
78675;BME280;67990;59.826;30.108;2023-03-05T06:03:43;99350.41;;;1.69;71.10
78675;BME280;67990;59.826;30.108;2023-03-05T06:06:14;99352.69;;;1.84;71.08
78675;BME280;67990;59.826;30.108;2023-03-05T06:08:42;99354.09;;;1.88;71.30
78675;BME280;67990;59.826;30.108;2023-03-05T06:11:09;99358.84;;;2.05;70.67
78675;BME280;67990;59.826;30.108;2023-03-05T06:13:37;99340.25;;;2.00;70.40
78675;BME280;67990;59.826;30.108;2023-03-05T06:16:06;99358.06;;;2.27;70.63
78675;BME280;67990;59.826;30.108;2023-03-05T06:18:34;99360.31;;;2.42;70.19
78675;BME280;67990;59.826;30.108;2023-03-05T06:21:03;99359.97;;;2.58;70.00
78675;BME280;67990;59.826;30.108;2023-03-05T06:23:33;99369.75;;;2.65;69.17
78675;BME280;67990;59.826;30.108;2023-03-05T06:26:02;99372.44;;;2.75;69.21
78675;BME280;67990;59.826;30.108;2023-03-05T06:28:30;99369.06;;;2.85;69.20
78675;BME280;67990;59.826;30.108;2023-03-05T06:31:02;99374.59;;;2.92;68.90
78675;BME280;67990;59.826;30.108;2023-03-05T06:33:30;99371.94;;;3.03;68.43
78675;BME280;67990;59.826;30.108;2023-03-05T06:35:57;99367.50;;;3.05;67.79
78675;BME280;67990;59.826;30.108;2023-03-05T06:38:25;99361.81;;;3.11;67.60
78675;BME280;67990;59.826;30.108;2023-03-05T06:40:53;99372.06;;;3.12;67.81
78675;BME280;67990;59.826;30.108;2023-03-05T06:43:21;99364.97;;;3.25;67.76
78675;BME280;67990;59.826;30.108;2023-03-05T06:45:48;99369.41;;;3.34;67.05
78675;BME280;67990;59.826;30.108;2023-03-05T06:48:15;99358.81;;;3.26;66.68
78675;BME280;67990;59.826;30.108;2023-03-05T06:50:42;99372.81;;;3.46;66.63
78675;BME280;67990;59.826;30.108;2023-03-05T06:53:09;99368.19;;;3.49;66.62
78675;BME280;67990;59.826;30.108;2023-03-05T06:55:37;99364.44;;;3.42;66.14
78675;BME280;67990;59.826;30.108;2023-03-05T06:58:07;99363.13;;;3.48;66.16
78675;BME280;67990;59.826;30.108;2023-03-05T07:00:35;99368.69;;;3.43;65.17
78675;BME280;67990;59.826;30.108;2023-03-05T07:03:02;99362.91;;;3.40;66.11
78675;BME280;67990;59.826;30.108;2023-03-05T07:05:29;99369.38;;;3.45;66.14
78675;BME280;67990;59.826;30.108;2023-03-05T07:07:57;99367.97;;;3.52;65.29
78675;BME280;67990;59.826;30.108;2023-03-05T07:10:24;99369.47;;;3.55;65.54
78675;BME280;67990;59.826;30.108;2023-03-05T07:12:54;99331.84;;;3.18;65.73
78675;BME280;67990;59.826;30.108;2023-03-05T07:15:25;99366.25;;;3.31;66.02
78675;BME280;67990;59.826;30.108;2023-03-05T07:17:52;99374.00;;;3.42;65.91
78675;BME280;67990;59.826;30.108;2023-03-05T07:20:21;99379.53;;;3.48;65.89
78675;BME280;67990;59.826;30.108;2023-03-05T07:22:48;99376.75;;;3.61;65.63
78675;BME280;67990;59.826;30.108;2023-03-05T07:25:15;99380.22;;;3.50;65.53
78675;BME280;67990;59.826;30.108;2023-03-05T07:27:46;99377.06;;;3.47;65.02
78675;BME280;67990;59.826;30.108;2023-03-05T07:30:14;99371.88;;;3.47;65.39
78675;BME280;67990;59.826;30.108;2023-03-05T07:32:43;99377.25;;;3.55;64.86
78675;BME280;67990;59.826;30.108;2023-03-05T07:35:10;99380.31;;;3.60;65.35
78675;BME280;67990;59.826;30.108;2023-03-05T07:37:37;99381.88;;;3.83;65.11
78675;BME280;67990;59.826;30.108;2023-03-05T07:40:05;99389.47;;;3.95;64.72
78675;BME280;67990;59.826;30.108;2023-03-05T07:42:33;99390.88;;;3.99;64.22
78675;BME280;67990;59.826;30.108;2023-03-05T07:45:11;99365.59;;;4.01;64.04
78675;BME280;67990;59.826;30.108;2023-03-05T07:47:38;99385.31;;;4.24;63.75
78675;BME280;67990;59.826;30.108;2023-03-05T07:50:08;99375.03;;;4.23;63.47
78675;BME280;67990;59.826;30.108;2023-03-05T07:52:36;99378.59;;;4.22;63.90
78675;BME280;67990;59.826;30.108;2023-03-05T07:55:04;99373.03;;;4.26;63.36
78675;BME280;67990;59.826;30.108;2023-03-05T07:57:31;99381.25;;;4.31;63.16
78675;BME280;67990;59.826;30.108;2023-03-05T08:00:00;99385.06;;;4.27;63.40
78675;BME280;67990;59.826;30.108;2023-03-05T08:02:37;99386.59;;;4.09;63.68
78675;BME280;67990;59.826;30.108;2023-03-05T08:05:05;99385.81;;;4.39;62.96
78675;BME280;67990;59.826;30.108;2023-03-05T08:07:33;99381.88;;;4.44;62.81
78675;BME280;67990;59.826;30.108;2023-03-05T08:10:00;99384.91;;;4.49;62.61
78675;BME280;67990;59.826;30.108;2023-03-05T08:12:29;99383.25;;;4.48;63.31
78675;BME280;67990;59.826;30.108;2023-03-05T08:14:56;99392.81;;;4.48;62.55
78675;BME280;67990;59.826;30.108;2023-03-05T08:17:23;99393.00;;;4.56;62.58
78675;BME280;67990;59.826;30.108;2023-03-05T08:19:50;99396.38;;;4.47;62.97
78675;BME280;67990;59.826;30.108;2023-03-05T08:22:18;99396.44;;;4.56;62.70
78675;BME280;67990;59.826;30.108;2023-03-05T08:24:47;99399.72;;;4.58;63.15
78675;BME280;67990;59.826;30.108;2023-03-05T08:27:15;99401.09;;;4.62;62.67
78675;BME280;67990;59.826;30.108;2023-03-05T08:29:42;99392.56;;;4.51;63.14
78675;BME280;67990;59.826;30.108;2023-03-05T08:32:10;99400.69;;;4.57;62.91
78675;BME280;67990;59.826;30.108;2023-03-05T08:34:38;99401.41;;;4.59;63.08
78675;BME280;67990;59.826;30.108;2023-03-05T08:37:07;99399.38;;;4.42;63.09
78675;BME280;67990;59.826;30.108;2023-03-05T08:39:35;99403.22;;;4.07;63.35
78675;BME280;67990;59.826;30.108;2023-03-05T08:42:03;99403.50;;;4.04;64.31
78675;BME280;67990;59.826;30.108;2023-03-05T08:44:31;99400.72;;;3.96;63.28
78675;BME280;67990;59.826;30.108;2023-03-05T08:46:58;99409.06;;;3.99;64.17
78675;BME280;67990;59.826;30.108;2023-03-05T08:49:28;99402.72;;;3.92;64.66
78675;BME280;67990;59.826;30.108;2023-03-05T08:52:05;99404.41;;;3.82;64.73
78675;BME280;67990;59.826;30.108;2023-03-05T08:54:37;99409.81;;;3.59;64.70
78675;BME280;67990;59.826;30.108;2023-03-05T08:57:16;99401.78;;;3.62;65.34
78675;BME280;67990;59.826;30.108;2023-03-05T08:59:46;99407.69;;;3.64;65.50
78675;BME280;67990;59.826;30.108;2023-03-05T09:02:15;99409.69;;;3.92;64.79
78675;BME280;67990;59.826;30.108;2023-03-05T09:04:49;99411.09;;;3.96;64.62
78675;BME280;67990;59.826;30.108;2023-03-05T09:07:19;99406.91;;;3.84;64.28
78675;BME280;67990;59.826;30.108;2023-03-05T09:09:46;99408.41;;;3.86;64.73
78675;BME280;67990;59.826;30.108;2023-03-05T09:12:14;99405.19;;;3.94;64.18
78675;BME280;67990;59.826;30.108;2023-03-05T09:14:42;99407.31;;;4.00;64.47
78675;BME280;67990;59.826;30.108;2023-03-05T09:17:09;99401.41;;;4.18;64.40
78675;BME280;67990;59.826;30.108;2023-03-05T09:19:36;99413.91;;;4.24;63.93
78675;BME280;67990;59.826;30.108;2023-03-05T09:22:03;99406.59;;;3.98;64.05
78675;BME280;67990;59.826;30.108;2023-03-05T09:24:31;99412.34;;;3.81;64.55
78675;BME280;67990;59.826;30.108;2023-03-05T09:26:58;99400.88;;;3.41;65.25
78675;BME280;67990;59.826;30.108;2023-03-05T09:29:25;99410.69;;;3.48;65.71
78675;BME280;67990;59.826;30.108;2023-03-05T09:31:55;99409.72;;;3.60;65.95
78675;BME280;67990;59.826;30.108;2023-03-05T09:34:23;99407.06;;;3.71;65.11
78675;BME280;67990;59.826;30.108;2023-03-05T09:36:50;99402.34;;;3.76;64.89
78675;BME280;67990;59.826;30.108;2023-03-05T09:39:17;99374.03;;;3.62;64.78
78675;BME280;67990;59.826;30.108;2023-03-05T09:42:06;99399.09;;;4.04;64.61
78675;BME280;67990;59.826;30.108;2023-03-05T09:44:43;99400.00;;;3.94;64.52
78675;BME280;67990;59.826;30.108;2023-03-05T09:47:26;99414.59;;;4.06;64.45
78675;BME280;67990;59.826;30.108;2023-03-05T09:49:58;99367.03;;;3.74;64.45
78675;BME280;67990;59.826;30.108;2023-03-05T09:52:34;99406.38;;;3.90;64.52
78675;BME280;67990;59.826;30.108;2023-03-05T09:55:04;99414.03;;;4.02;64.50
78675;BME280;67990;59.826;30.108;2023-03-05T09:57:40;99414.38;;;3.98;64.61
78675;BME280;67990;59.826;30.108;2023-03-05T10:00:22;99402.72;;;3.92;64.73
78675;BME280;67990;59.826;30.108;2023-03-05T10:02:56;99383.84;;;3.59;64.67
78675;BME280;67990;59.826;30.108;2023-03-05T10:05:42;99405.97;;;3.74;64.94
78675;BME280;67990;59.826;30.108;2023-03-05T10:08:12;99392.44;;;3.70;64.64
78675;BME280;67990;59.826;30.108;2023-03-05T10:10:46;99418.56;;;3.58;64.73
78675;BME280;67990;59.826;30.108;2023-03-05T10:13:19;99417.53;;;3.81;64.67
78675;BME280;67990;59.826;30.108;2023-03-05T10:15:55;99415.66;;;3.83;64.56
78675;BME280;67990;59.826;30.108;2023-03-05T10:18:30;99416.25;;;3.75;64.99
78675;BME280;67990;59.826;30.108;2023-03-05T10:21:00;99419.22;;;3.17;65.78
78675;BME280;67990;59.826;30.108;2023-03-05T10:23:36;99414.72;;;3.30;66.16
78675;BME280;67990;59.826;30.108;2023-03-05T10:26:13;99417.19;;;3.74;65.38
78675;BME280;67990;59.826;30.108;2023-03-05T10:28:48;99419.59;;;3.55;65.30
78675;BME280;67990;59.826;30.108;2023-03-05T10:31:33;99419.91;;;3.41;65.70
78675;BME280;67990;59.826;30.108;2023-03-05T10:34:22;99413.31;;;3.69;65.73
78675;BME280;67990;59.826;30.108;2023-03-05T10:37:06;99409.38;;;3.54;65.09
78675;BME280;67990;59.826;30.108;2023-03-05T10:39:52;99416.53;;;3.61;65.43
78675;BME280;67990;59.826;30.108;2023-03-05T10:42:43;99422.47;;;3.52;65.68
78675;BME280;67990;59.826;30.108;2023-03-05T10:45:21;99419.06;;;3.41;65.51
78675;BME280;67990;59.826;30.108;2023-03-05T10:47:53;99409.38;;;3.54;65.98
78675;BME280;67990;59.826;30.108;2023-03-05T10:50:25;99424.53;;;3.69;65.06
78675;BME280;67990;59.826;30.108;2023-03-05T10:53:11;99428.13;;;3.46;65.61
78675;BME280;67990;59.826;30.108;2023-03-05T10:55:41;99421.16;;;3.89;65.15
78675;BME280;67990;59.826;30.108;2023-03-05T10:58:11;99422.56;;;4.14;63.87
78675;BME280;67990;59.826;30.108;2023-03-05T11:00:57;99426.66;;;4.27;63.45
78675;BME280;67990;59.826;30.108;2023-03-05T11:03:46;99420.31;;;4.41;62.85
78675;BME280;67990;59.826;30.108;2023-03-05T11:06:27;99419.91;;;4.45;63.07
78675;BME280;67990;59.826;30.108;2023-03-05T11:09:16;99397.66;;;4.11;63.23
78675;BME280;67990;59.826;30.108;2023-03-05T11:12:02;99427.38;;;3.98;63.24
78675;BME280;67990;59.826;30.108;2023-03-05T11:14:33;99408.88;;;3.91;63.95
78675;BME280;67990;59.826;30.108;2023-03-05T11:17:22;99426.78;;;4.05;63.74
78675;BME280;67990;59.826;30.108;2023-03-05T11:19:50;99367.94;;;4.04;62.93
78675;BME280;67990;59.826;30.108;2023-03-05T11:22:20;99426.38;;;4.51;62.44
78675;BME280;67990;59.826;30.108;2023-03-05T11:25:05;99430.91;;;4.49;62.65
78675;BME280;67990;59.826;30.108;2023-03-05T11:27:43;99433.66;;;3.95;63.59
78675;BME280;67990;59.826;30.108;2023-03-05T11:30:25;99430.38;;;3.93;63.18
78675;BME280;67990;59.826;30.108;2023-03-05T11:33:07;99428.25;;;3.87;63.71
78675;BME280;67990;59.826;30.108;2023-03-05T11:35:36;99427.59;;;3.74;64.12
78675;BME280;67990;59.826;30.108;2023-03-05T11:38:10;99437.44;;;3.91;64.13
78675;BME280;67990;59.826;30.108;2023-03-05T11:40:40;99427.13;;;4.01;63.28
78675;BME280;67990;59.826;30.108;2023-03-05T11:43:14;99414.16;;;3.69;63.53
78675;BME280;67990;59.826;30.108;2023-03-05T11:45:42;99432.03;;;3.83;64.15
78675;BME280;67990;59.826;30.108;2023-03-05T11:48:14;99432.53;;;3.35;64.51
78675;BME280;67990;59.826;30.108;2023-03-05T11:50:44;99414.88;;;3.07;65.87
78675;BME280;67990;59.826;30.108;2023-03-05T11:53:19;99436.09;;;3.12;65.73
78675;BME280;67990;59.826;30.108;2023-03-05T11:55:49;99437.50;;;3.27;65.48
78675;BME280;67990;59.826;30.108;2023-03-05T11:58:27;99430.28;;;3.30;65.12
78675;BME280;67990;59.826;30.108;2023-03-05T12:00:55;99443.53;;;3.05;66.25
78675;BME280;67990;59.826;30.108;2023-03-05T12:03:24;99434.09;;;3.15;66.23
78675;BME280;67990;59.826;30.108;2023-03-05T12:05:56;99437.34;;;3.50;65.74
78675;BME280;67990;59.826;30.108;2023-03-05T12:08:30;99439.63;;;3.75;64.88
78675;BME280;67990;59.826;30.108;2023-03-05T12:11:03;99435.19;;;3.55;64.86
78675;BME280;67990;59.826;30.108;2023-03-05T12:13:34;99419.06;;;3.41;65.25
78675;BME280;67990;59.826;30.108;2023-03-05T12:16:10;99446.63;;;3.64;65.15
78675;BME280;67990;59.826;30.108;2023-03-05T12:18:47;99445.19;;;3.71;64.59
78675;BME280;67990;59.826;30.108;2023-03-05T12:21:24;99439.41;;;3.67;64.46
78675;BME280;67990;59.826;30.108;2023-03-05T12:23:57;99442.56;;;3.39;65.14
78675;BME280;67990;59.826;30.108;2023-03-05T12:27:04;99440.88;;;3.49;64.93
78675;BME280;67990;59.826;30.108;2023-03-05T12:29:45;99441.56;;;3.62;64.86
78675;BME280;67990;59.826;30.108;2023-03-05T12:32:50;99437.78;;;3.55;64.44
78675;BME280;67990;59.826;30.108;2023-03-05T12:35:22;99438.72;;;3.65;64.51
78675;BME280;67990;59.826;30.108;2023-03-05T12:38:02;99432.66;;;3.33;64.82
78675;BME280;67990;59.826;30.108;2023-03-05T12:40:32;99441.38;;;3.32;65.27
78675;BME280;67990;59.826;30.108;2023-03-05T12:43:00;99442.63;;;3.49;64.46
78675;BME280;67990;59.826;30.108;2023-03-05T12:45:36;99449.09;;;3.65;64.36
78675;BME280;67990;59.826;30.108;2023-03-05T12:48:43;99447.13;;;3.58;64.42
78675;BME280;67990;59.826;30.108;2023-03-05T12:51:27;99449.09;;;3.65;64.17
78675;BME280;67990;59.826;30.108;2023-03-05T12:53:56;99453.56;;;3.74;63.37
78675;BME280;67990;59.826;30.108;2023-03-05T12:56:29;99450.19;;;3.63;63.64
78675;BME280;67990;59.826;30.108;2023-03-05T12:58:59;99451.06;;;3.30;64.30
78675;BME280;67990;59.826;30.108;2023-03-05T13:01:39;99466.88;;;3.16;64.57
78675;BME280;67990;59.826;30.108;2023-03-05T13:04:14;99463.22;;;3.08;64.68
78675;BME280;67990;59.826;30.108;2023-03-05T13:06:44;99461.00;;;3.14;64.79
78675;BME280;67990;59.826;30.108;2023-03-05T13:09:16;99466.28;;;2.91;65.52
78675;BME280;67990;59.826;30.108;2023-03-05T13:11:47;99460.75;;;2.84;65.66
78675;BME280;67990;59.826;30.108;2023-03-05T13:14:28;99467.47;;;2.98;65.66
78675;BME280;67990;59.826;30.108;2023-03-05T13:16:56;99465.94;;;2.73;65.62